Time;durP1;ratioP1;P1;durP2;ratioP2;P2;SDS_P1;SDS_P2;PMS_P1;PMS_P2;Temp;Humidity;BMP_temperature;BMP_pressure;BME280_temperature;BME280_humidity;BME280_pressure;Samples;Min_cycle;Max_cycle;Signal;HPM_P1;HPM_P2
2022/04/22 00:02:03;;;;;;;18.80;8.10;;;;;;;8.18;75.47;99776.05;104953;1274;68774;-63
2022/04/22 00:04:53;;;;;;;18.90;8.20;;;;;;;8.17;75.40;99775.20;105053;1273;71630;-62
2022/04/22 00:07:41;;;;;;;17.70;7.50;;;;;;;8.16;75.37;99781.30;104820;1274;61318;-63
2022/04/22 00:10:30;;;;;;;16.00;7.20;;;;;;;8.15;75.80;99778.70;105042;1274;61585;-61
2022/04/22 00:13:18;;;;;;;14.70;6.20;;;;;;;8.14;75.72;99774.54;104864;1274;72697;-61
2022/04/22 00:16:07;;;;;;;14.00;6.90;;;;;;;8.14;75.72;99778.98;104885;1273;68407;-63
2022/04/22 00:18:55;;;;;;;14.10;6.00;;;;;;;8.15;75.82;99774.68;105077;1274;74392;-63
2022/04/22 00:21:43;;;;;;;14.50;5.70;;;;;;;8.15;75.69;99775.49;104801;1272;59566;-61
2022/04/22 00:24:31;;;;;;;12.80;4.70;;;;;;;8.14;75.73;99772.08;104103;1273;1003375;-63
2022/04/22 00:27:20;;;;;;;11.60;4.30;;;;;;;8.12;75.62;99773.67;105157;1274;74800;-64
2022/04/22 00:30:11;;;;;;;11.70;4.30;;;;;;;8.11;75.35;99771.41;105008;1274;67513;-63
2022/04/22 00:32:59;;;;;;;12.70;4.60;;;;;;;8.10;75.21;99764.62;104858;1273;74446;-64
2022/04/22 00:35:48;;;;;;;14.80;5.40;;;;;;;8.06;75.33;99767.52;104906;1274;59788;-65
2022/04/22 00:38:36;;;;;;;17.90;5.30;;;;;;;8.03;75.38;99767.23;105100;1274;59673;-62
2022/04/22 00:41:24;;;;;;;12.00;4.70;;;;;;;7.98;75.48;99764.23;105072;1272;74647;-62
2022/04/22 00:44:12;;;;;;;16.40;5.50;;;;;;;7.96;76.06;99766.84;105018;1274;68892;-64
2022/04/22 00:47:00;;;;;;;16.70;5.90;;;;;;;7.93;76.32;99763.71;102566;1273;1003828;-64
2022/04/22 00:49:48;;;;;;;18.60;6.10;;;;;;;7.91;76.37;99760.33;104746;1274;60602;-65
2022/04/22 00:52:36;;;;;;;18.10;6.00;;;;;;;7.90;76.71;99758.27;104874;1272;60392;-63
2022/04/22 00:55:24;;;;;;;15.60;6.20;;;;;;;7.90;76.71;99755.78;105252;1274;74356;-64
2022/04/22 00:58:15;;;;;;;18.30;6.70;;;;;;;7.92;77.11;99755.84;105039;1273;68281;-65
2022/04/22 01:01:03;;;;;;;16.80;6.70;;;;;;;7.94;76.94;99754.80;104823;1273;73001;-65
2022/04/22 01:10:25;;;;;;;17.10;6.70;;;;;;;7.94;77.13;99757.25;104851;1273;74741;-68
2022/04/22 01:13:14;;;;;;;15.00;6.70;;;;;;;7.93;76.92;99753.48;104938;1274;68146;-67
2022/04/22 01:16:01;;;;;;;17.30;6.30;;;;;;;7.91;76.93;99754.48;104788;1273;73213;-66
2022/04/22 01:18:49;;;;;;;14.50;6.00;;;;;;;7.89;76.94;99758.34;105058;1272;59704;-64
2022/04/22 01:21:37;;;;;;;15.90;6.40;;;;;;;7.87;77.29;99761.66;104793;1273;60688;-64
2022/04/22 01:24:27;;;;;;;14.80;6.40;;;;;;;7.83;77.27;99757.45;104894;1274;73988;-64
2022/04/22 01:27:16;;;;;;;16.20;6.40;;;;;;;7.82;77.48;99761.27;104820;1274;68212;-65
2022/04/22 01:30:06;;;;;;;14.80;6.30;;;;;;;7.78;77.29;99754.33;104922;1273;73832;-67
2022/04/22 01:32:56;;;;;;;15.30;5.90;;;;;;;7.83;77.66;99758.05;104857;1273;59650;-66
2022/04/22 01:35:44;;;;;;;15.80;6.00;;;;;;;7.83;77.48;99760.35;104783;1273;59670;-67
2022/04/22 01:38:32;;;;;;;15.50;6.40;;;;;;;7.84;77.62;99760.59;104727;1273;73131;-64
2022/04/22 01:41:21;;;;;;;12.20;5.60;;;;;;;7.87;77.40;99759.36;105052;1274;69493;-64
2022/04/22 01:44:09;;;;;;;14.00;5.40;;;;;;;7.85;77.37;99749.46;104898;1274;72656;-63
2022/04/22 01:46:57;;;;;;;14.70;5.60;;;;;;;7.91;77.25;99755.18;104806;1274;59661;-63
2022/04/22 01:49:45;;;;;;;13.00;5.90;;;;;;;7.93;77.29;99753.64;105100;1274;59576;-64
2022/04/22 01:52:35;;;;;;;11.90;5.30;;;;;;;7.94;77.37;99750.89;104853;1273;74572;-67
2022/04/22 01:55:23;;;;;;;13.80;5.10;;;;;;;7.95;77.39;99752.95;104950;1273;69381;-64
2022/04/22 01:58:11;;;;;;;14.80;5.20;;;;;;;7.94;77.34;99754.05;105076;1274;72448;-63
2022/04/22 02:00:59;;;;;;;11.60;5.30;;;;;;;7.95;77.30;99758.10;105068;1274;59714;-63
2022/04/22 02:03:49;;;;;;;13.10;4.80;;;;;;;7.96;76.85;99762.10;105094;1274;59762;-65
2022/04/22 02:06:36;;;;;;;12.70;4.90;;;;;;;7.96;77.27;99760.27;105124;1274;73593;-66
2022/04/22 02:09:24;;;;;;;11.40;5.10;;;;;;;7.97;76.69;99761.97;104820;1274;67884;-63
2022/04/22 02:12:13;;;;;;;14.20;4.80;;;;;;;8.00;76.65;99767.94;104913;1274;73425;-64
2022/04/22 02:15:01;;;;;;;10.50;4.10;;;;;;;8.04;76.25;99770.37;104894;1274;59850;-68
2022/04/22 02:17:49;;;;;;;10.30;4.30;;;;;;;8.07;75.89;99771.56;104991;1274;61434;-69
2022/04/22 02:20:37;;;;;;;9.80;4.20;;;;;;;8.10;75.58;99765.34;104849;1273;74749;-66
2022/04/22 02:23:28;;;;;;;10.60;4.30;;;;;;;8.12;75.15;99756.16;104760;1273;68390;-64
2022/04/22 02:26:16;;;;;;;10.10;3.90;;;;;;;8.13;74.86;99758.53;105148;1274;73541;-66
2022/04/22 02:29:07;;;;;;;10.90;4.30;;;;;;;8.15;74.61;99769.70;105031;1274;59726;-60
2022/04/22 02:31:55;;;;;;;10.80;4.00;;;;;;;8.16;74.04;99765.38;104860;1274;60337;-61
2022/04/22 02:34:43;;;;;;;21.80;7.00;;;;;;;8.18;73.95;99764.02;104786;1273;72691;-63
2022/04/22 02:37:34;;;;;;;30.40;9.10;;;;;;;8.19;73.28;99760.41;104848;1274;65918;-64
2022/04/22 02:46:35;;;;;;;37.30;10.50;;;;;;;8.31;72.02;99765.02;104722;1273;59648;-65
2022/04/22 02:49:23;;;;;;;31.90;8.30;;;;;;;8.37;71.50;99767.58;104916;1274;73722;-63
2022/04/22 02:52:13;;;;;;;38.10;8.60;;;;;;;8.43;71.28;99764.70;104852;1274;65806;-64
2022/04/22 02:55:01;;;;;;;26.40;6.80;;;;;;;8.48;71.16;99766.08;104961;1274;70978;-64
2022/04/22 02:57:49;;;;;;;20.20;6.00;;;;;;;8.51;71.04;99771.17;104997;1274;59948;-63
2022/04/22 03:00:37;;;;;;;28.60;7.50;;;;;;;8.54;70.62;99779.65;104965;1273;60947;-63
2022/04/22 03:03:25;;;;;;;26.80;6.60;;;;;;;8.55;70.43;99780.29;105007;1273;74723;-63
2022/04/22 03:06:14;;;;;;;18.90;5.90;;;;;;;8.55;70.13;99781.89;104871;1274;69232;-64
2022/04/22 03:09:02;;;;;;;19.70;5.70;;;;;;;8.54;70.44;99786.06;104910;1272;72981;-64
2022/04/22 03:11:50;;;;;;;21.10;6.50;;;;;;;8.50;70.43;99784.51;105007;1273;59761;-63
2022/04/22 03:14:38;;;;;;;17.40;5.60;;;;;;;8.48;70.71;99785.58;104849;1274;61102;-63
2022/04/22 03:17:26;;;;;;;19.60;5.60;;;;;;;8.44;70.87;99786.40;104936;1274;73774;-64
2022/04/22 03:20:15;;;;;;;21.80;5.90;;;;;;;8.39;71.19;99787.08;104996;1274;67611;-64
2022/04/22 03:23:04;;;;;;;20.10;5.20;;;;;;;8.33;71.58;99782.23;104847;1274;72608;-63
2022/04/22 03:25:54;;;;;;;21.00;6.10;;;;;;;8.27;71.48;99781.23;104777;1273;59675;-63
2022/04/22 03:28:42;;;;;;;25.30;7.30;;;;;;;8.21;71.59;99781.81;105014;1274;61881;-64
2022/04/22 03:31:30;;;;;;;27.80;7.00;;;;;;;8.15;71.81;99783.29;104859;1272;72482;-63
2022/04/22 03:34:18;;;;;;;13.80;3.70;;;;;;;8.09;71.91;99782.13;104885;1273;69304;-63
2022/04/22 03:37:06;;;;;;;9.80;3.40;;;;;;;8.03;72.08;99782.58;104852;1273;72309;-63
2022/04/22 03:39:54;;;;;;;9.90;3.30;;;;;;;7.97;72.21;99782.64;105302;1274;59637;-62
2022/04/22 03:42:42;;;;;;;9.00;3.10;;;;;;;7.91;72.31;99785.22;105004;1273;62162;-64
2022/04/22 03:45:30;;;;;;;10.70;3.40;;;;;;;7.85;72.77;99785.33;104841;1274;74832;-62
2022/04/22 03:48:20;;;;;;;8.90;3.40;;;;;;;7.80;73.09;99787.40;105084;1273;69649;-63
2022/04/22 03:51:09;;;;;;;9.20;3.30;;;;;;;7.75;74.01;99785.60;105092;1274;72031;-63
2022/04/22 03:53:58;;;;;;;10.90;3.30;;;;;;;7.73;73.64;99787.34;105115;1274;60520;-64
2022/04/22 03:59:55;;;;;;;10.60;3.20;;;;;;;7.71;74.33;99787.13;105140;1274;73927;-63
2022/04/22 04:02:43;;;;;;;9.50;3.40;;;;;;;7.71;74.60;99782.52;105080;1274;66840;-63
2022/04/22 04:05:31;;;;;;;9.00;3.00;;;;;;;7.73;74.70;99786.52;104827;1274;73409;-62
2022/04/22 04:08:24;;;;;;;9.00;3.30;;;;;;;7.73;74.81;99783.99;104733;1273;60010;-65
2022/04/22 04:17:25;;;;;;;9.70;3.40;;;;;;;7.78;74.68;99791.23;105154;1274;68311;-63
2022/04/22 04:23:20;;;;;;;10.40;3.20;;;;;;;7.81;75.07;99797.06;105074;1274;59642;-65
2022/04/22 04:26:09;;;;;;;9.40;3.70;;;;;;;7.82;75.19;99800.67;104994;1274;62026;-66
2022/04/22 04:28:56;;;;;;;11.10;4.20;;;;;;;7.83;75.21;99800.91;104916;1274;74074;-65
2022/04/22 04:31:44;;;;;;;10.00;3.90;;;;;;;7.86;75.48;99806.45;104969;1274;68212;-66
2022/04/22 04:34:37;;;;;;;11.10;3.80;;;;;;;7.86;75.54;99805.36;105049;1274;73416;-65
2022/04/22 04:37:25;;;;;;;8.70;3.70;;;;;;;7.84;75.78;99806.01;104917;1274;59759;-70
2022/04/22 04:40:12;;;;;;;10.20;3.30;;;;;;;7.82;76.18;99809.48;104859;1274;61341;-68
2022/04/22 04:43:01;;;;;;;9.80;3.40;;;;;;;7.80;76.37;99812.46;104874;1274;73805;-65
2022/04/22 04:45:50;;;;;;;8.50;3.50;;;;;;;7.78;76.81;99812.59;104792;1272;66993;-68
2022/04/22 04:48:38;;;;;;;8.60;3.10;;;;;;;7.79;76.51;99820.48;104844;1274;73181;-67
2022/04/22 04:51:26;;;;;;;9.70;3.80;;;;;;;7.81;76.91;99818.95;104062;1274;1002952;-69
2022/04/22 04:54:16;;;;;;;9.60;3.60;;;;;;;7.83;77.31;99816.51;104843;1274;62063;-66
2022/04/22 04:57:05;;;;;;;9.00;2.90;;;;;;;7.86;77.36;99815.61;104845;1274;74786;-68
2022/04/22 04:59:52;;;;;;;8.80;3.00;;;;;;;7.90;77.44;99814.84;104977;1274;69532;-64
2022/04/22 05:02:40;;;;;;;7.90;2.90;;;;;;;7.92;77.45;99818.37;104845;1274;72987;-68
2022/04/22 05:05:29;;;;;;;9.70;2.60;;;;;;;7.92;77.24;99815.02;104906;1274;59648;-70
2022/04/22 05:08:19;;;;;;;8.10;2.60;;;;;;;8.00;77.25;99824.50;105146;1272;59592;-67
2022/04/22 05:11:06;;;;;;;8.80;2.80;;;;;;;8.05;77.03;99827.70;105076;1274;73632;-66
2022/04/22 05:13:54;;;;;;;8.50;3.30;;;;;;;8.10;76.81;99828.72;104981;1273;69734;-68
2022/04/22 05:16:42;;;;;;;8.30;2.80;;;;;;;8.15;76.53;99830.64;105402;1273;73508;-67
2022/04/22 05:19:30;;;;;;;8.50;2.70;;;;;;;8.23;76.40;99835.98;104721;1273;59713;-66
2022/04/22 05:22:18;;;;;;;7.80;2.40;;;;;;;8.30;76.25;99838.10;104860;1274;61288;-65
2022/04/22 05:25:10;;;;;;;9.80;2.60;;;;;;;8.39;75.85;99837.45;104942;1274;71392;-66
2022/04/22 05:27:58;;;;;;;8.60;2.70;;;;;;;8.50;75.57;99836.54;104918;1274;69132;-68
2022/04/22 05:33:52;;;;;;;7.00;2.50;;;;;;;8.84;74.79;99840.06;105055;1274;59650;-66
2022/04/22 05:36:40;;;;;;;9.80;3.10;;;;;;;9.20;73.18;99840.25;104830;1274;60484;-70
2022/04/22 05:39:28;;;;;;;8.20;2.70;;;;;;;10.26;69.95;99834.13;104901;1274;74845;-75
2022/04/22 05:42:16;;;;;;;8.90;2.80;;;;;;;11.85;64.83;99824.72;104662;1273;67507;-73
2022/04/22 05:45:07;;;;;;;9.50;2.40;;;;;;;13.67;58.61;99819.25;104731;1273;70576;-68
2022/04/22 05:47:58;;;;;;;9.30;2.40;;;;;;;15.34;53.80;99817.64;105237;1273;59729;-67
2022/04/22 05:50:46;;;;;;;6.90;2.30;;;;;;;16.80;49.09;99813.59;104878;1274;61015;-68
2022/04/22 05:53:35;;;;;;;7.90;2.10;;;;;;;18.02;45.72;99811.35;105040;1274;74912;-67
2022/04/22 05:56:23;;;;;;;6.70;2.10;;;;;;;19.29;43.30;99812.69;105232;1272;68067;-65
2022/04/22 05:59:11;;;;;;;7.20;2.00;;;;;;;20.40;40.25;99805.81;104834;1274;73874;-65
2022/04/22 06:01:59;;;;;;;8.10;2.70;;;;;;;21.25;37.34;99800.52;104818;1274;59654;-67
2022/04/22 06:04:47;;;;;;;9.90;2.10;;;;;;;21.93;36.32;99799.63;104844;1274;61920;-67
2022/04/22 06:07:37;;;;;;;9.30;1.80;;;;;;;22.58;34.61;99800.69;104930;1274;73495;-67
2022/04/22 06:10:31;;;;;;;6.60;2.10;;;;;;;23.09;33.34;99799.95;104830;1273;68018;-65
2022/04/22 06:13:19;;;;;;;6.60;2.00;;;;;;;23.45;31.65;99806.23;104921;1274;73792;-67
2022/04/22 06:16:07;;;;;;;6.70;2.00;;;;;;;23.76;31.75;99807.86;105007;1274;59707;-65
2022/04/22 06:18:56;;;;;;;8.50;1.80;;;;;;;24.33;30.78;99800.73;104771;1273;60477;-70
2022/04/22 06:21:44;;;;;;;6.70;1.60;;;;;;;24.72;29.54;99799.69;105008;1274;73695;-66
2022/04/22 06:24:31;;;;;;;6.10;1.80;;;;;;;25.05;28.61;99795.04;105439;1274;68091;-67
2022/04/22 06:27:28;;;;;;;7.60;1.70;;;;;;;25.45;28.41;99794.99;104718;1273;73835;-69
2022/04/22 06:30:21;;;;;;;6.70;2.10;;;;;;;25.85;27.50;99796.23;104794;1271;59772;-66
2022/04/22 06:33:10;;;;;;;8.50;2.50;;;;;;;26.49;27.04;99791.11;104728;1272;61933;-66
2022/04/22 06:36:03;;;;;;;8.50;1.80;;;;;;;26.99;26.09;99791.16;104695;1273;73692;-66
2022/04/22 06:38:57;;;;;;;10.70;3.00;;;;;;;27.36;25.51;99794.81;104785;1273;69472;-67
2022/04/22 06:48:00;;;;;;;7.10;2.50;;;;;;;28.15;24.11;99789.33;104770;1274;61941;-66
2022/04/22 06:50:50;;;;;;;10.10;2.70;;;;;;;28.27;24.00;99793.88;105164;1274;74515;-66
2022/04/22 06:53:38;;;;;;;6.10;2.10;;;;;;;28.52;23.41;99796.08;105011;1273;67837;-67
2022/04/22 06:56:27;;;;;;;10.40;4.10;;;;;;;28.43;23.32;99791.60;104787;1273;72911;-67
2022/04/22 06:59:21;;;;;;;8.00;2.20;;;;;;;28.31;23.42;99791.19;104968;1273;59668;-67
2022/04/22 07:02:10;;;;;;;10.20;3.20;;;;;;;28.34;23.17;99792.77;104786;1274;60278;-68
2022/04/22 07:04:58;;;;;;;6.20;2.20;;;;;;;28.36;23.03;99791.77;104828;1274;74946;-67
2022/04/22 07:07:47;;;;;;;5.50;1.60;;;;;;;27.99;23.20;99797.31;104913;1274;68226;-65
2022/04/22 07:10:36;;;;;;;6.50;2.50;;;;;;;27.65;23.68;99801.69;104794;1274;72324;-69
2022/04/22 07:13:25;;;;;;;9.70;4.10;;;;;;;27.62;24.14;99798.29;105213;1274;59659;-68
2022/04/22 07:16:17;;;;;;;14.70;10.30;;;;;;;27.77;23.59;99799.81;105107;1272;60477;-71
2022/04/22 07:19:06;;;;;;;8.90;5.60;;;;;;;27.96;23.70;99796.89;105088;1274;74765;-69
2022/04/22 07:21:54;;;;;;;7.30;2.00;;;;;;;27.39;24.10;99797.66;104864;1274;68574;-68
2022/04/22 07:24:42;;;;;;;10.70;6.30;;;;;;;26.30;25.02;99795.61;104755;1273;73472;-68
2022/04/22 07:27:34;;;;;;;8.00;2.80;;;;;;;25.33;26.46;99795.04;104911;1274;59654;-68
2022/04/22 07:30:23;;;;;;;8.50;1.90;;;;;;;24.84;27.36;99790.80;105118;1273;60893;-68
2022/04/22 07:33:12;;;;;;;9.10;2.50;;;;;;;25.43;26.84;99792.16;104928;1274;74925;-65
2022/04/22 07:36:00;;;;;;;6.50;2.10;;;;;;;25.29;27.25;99792.90;104816;1274;68747;-67
2022/04/22 07:38:49;;;;;;;9.60;3.90;;;;;;;25.76;26.57;99789.08;104986;1274;73540;-65
2022/04/22 07:41:39;;;;;;;11.20;3.00;;;;;;;26.27;26.22;99792.06;105049;1272;59759;-68
2022/04/22 07:47:36;;;;;;;11.00;2.40;;;;;;;26.73;25.50;99791.09;105112;1274;74033;-67
2022/04/22 07:50:25;;;;;;;9.00;2.10;;;;;;;26.91;24.82;99797.30;105250;1274;68415;-69
2022/04/22 07:53:13;;;;;;;13.30;2.30;;;;;;;26.86;24.85;99794.23;105205;1272;71900;-66
2022/04/22 07:56:03;;;;;;;10.20;2.20;;;;;;;26.91;24.89;99798.77;104792;1274;59674;-65
2022/04/22 07:58:52;;;;;;;9.60;1.60;;;;;;;27.03;25.02;99800.09;104931;1273;59657;-66
2022/04/22 08:01:40;;;;;;;8.40;1.80;;;;;;;27.30;24.72;99803.20;104967;1274;74996;-66
2022/04/22 08:04:28;;;;;;;8.40;1.60;;;;;;;26.99;24.34;99804.45;104768;1274;69746;-68
2022/04/22 08:07:18;;;;;;;6.00;1.80;;;;;;;27.02;24.76;99800.65;104891;1274;73557;-67
2022/04/22 08:10:10;;;;;;;7.90;3.30;;;;;;;27.30;24.59;99802.04;104864;1274;59535;-68
2022/04/22 08:12:58;;;;;;;8.10;3.20;;;;;;;27.58;24.13;99798.02;105054;1274;62414;-69
2022/04/22 08:15:46;;;;;;;16.70;8.90;;;;;;;27.64;23.75;99797.57;105077;1274;71763;-67
2022/04/22 08:18:36;;;;;;;10.30;2.90;;;;;;;27.58;23.88;99791.79;105164;1273;66527;-65
2022/04/22 08:21:23;;;;;;;44.60;14.00;;;;;;;27.17;24.24;99796.21;104982;1274;73814;-63
2022/04/22 08:24:11;;;;;;;49.20;14.30;;;;;;;26.77;24.51;99795.00;105079;1272;59772;-65
2022/04/22 08:26:59;;;;;;;19.90;5.20;;;;;;;26.83;24.81;99799.02;104863;1274;59544;-66
2022/04/22 08:29:47;;;;;;;9.30;2.40;;;;;;;26.98;24.81;99796.67;104911;1274;73872;-63
2022/04/22 08:32:36;;;;;;;8.40;1.90;;;;;;;27.13;24.89;99796.06;104687;1273;67770;-64
2022/04/22 08:35:23;;;;;;;9.30;2.20;;;;;;;27.46;24.59;99795.06;104718;1274;74299;-64
2022/04/22 08:38:11;;;;;;;6.10;1.70;;;;;;;27.58;23.84;99795.33;104853;1274;59648;-68
2022/04/22 08:41:01;;;;;;;6.40;1.70;;;;;;;27.70;23.63;99798.19;104856;1274;60728;-61
2022/04/22 08:43:56;;;;;;;6.20;1.70;;;;;;;27.82;23.55;99802.06;105000;1273;74606;-64
2022/04/22 08:49:59;;;;;;;9.10;2.80;;;;;;;27.94;23.57;99807.68;105375;1273;72357;-63
2022/04/22 08:53:05;;;;;;;9.60;3.50;;;;;;;27.69;23.79;99807.19;105110;1273;59707;-66
2022/04/22 08:55:57;;;;;;;6.50;2.10;;;;;;;27.62;23.91;99805.01;105068;1273;61907;-72
2022/04/22 08:58:46;;;;;;;6.10;2.20;;;;;;;27.41;23.95;99804.73;105037;1274;72143;-67
2022/04/22 09:01:34;;;;;;;6.90;2.30;;;;;;;27.45;24.10;99809.27;104941;1273;68607;-66
2022/04/22 09:04:22;;;;;;;7.50;2.50;;;;;;;27.48;23.88;99804.30;104738;1274;73162;-66
2022/04/22 09:07:13;;;;;;;7.40;2.50;;;;;;;27.32;24.02;99809.38;104436;1274;409163;-64
2022/04/22 09:10:01;;;;;;;6.10;2.20;;;;;;;27.33;24.05;99812.06;105026;1273;60375;-67
2022/04/22 09:12:54;;;;;;;9.80;3.50;;;;;;;27.33;24.07;99813.02;104752;1274;73587;-68
2022/04/22 09:15:42;;;;;;;8.10;2.80;;;;;;;27.24;23.71;99812.56;104773;1272;67907;-66
2022/04/22 09:19:08;;;;;;;9.40;3.00;;;;;;;27.24;24.06;99809.65;105124;1274;73630;-66
2022/04/22 09:21:57;;;;;;;9.30;2.60;;;;;;;27.18;23.86;99808.80;105031;1274;59564;-67
2022/04/22 09:24:53;;;;;;;7.00;2.30;;;;;;;27.13;23.52;99806.86;104884;1274;59580;-67
2022/04/22 09:27:42;;;;;;;22.10;2.80;;;;;;;27.23;23.50;99805.20;104985;1273;72456;-68
2022/04/22 09:30:31;;;;;;;13.10;3.20;;;;;;;27.07;23.73;99806.11;105292;1272;68841;-68
2022/04/22 09:33:19;;;;;;;6.50;2.40;;;;;;;27.00;24.13;99804.69;104752;1274;73460;-65
2022/04/22 09:42:43;;;;;;;11.00;5.70;;;;;;;26.87;23.81;99806.81;105044;1274;70872;-67
2022/04/22 09:45:39;;;;;;;8.20;2.60;;;;;;;26.90;23.56;99809.83;105075;1273;68872;-67
2022/04/22 09:48:41;;;;;;;6.70;2.60;;;;;;;26.80;23.69;99808.04;104719;1274;72452;-68
2022/04/22 09:51:31;;;;;;;9.70;3.90;;;;;;;26.73;23.73;99808.67;104874;1274;59685;-68
2022/04/22 09:54:19;;;;;;;9.10;3.30;;;;;;;26.66;23.48;99806.29;105000;1274;60570;-65
2022/04/22 09:57:07;;;;;;;10.30;6.10;;;;;;;26.80;23.33;99805.16;104790;1274;74743;-67
2022/04/22 09:59:55;;;;;;;8.80;3.00;;;;;;;26.89;23.17;99803.58;105161;1274;67876;-69
2022/04/22 10:02:45;;;;;;;8.70;3.60;;;;;;;27.13;22.83;99803.98;104883;1273;73341;-65
2022/04/22 10:05:35;;;;;;;7.50;3.50;;;;;;;27.39;22.30;99810.04;104958;1274;59762;-64
2022/04/22 10:08:23;;;;;;;7.70;3.00;;;;;;;27.36;22.18;99810.11;104733;1274;62101;-67
2022/04/22 10:11:16;;;;;;;9.40;3.70;;;;;;;27.24;22.07;99807.52;104849;1274;74605;-65
2022/04/22 10:14:10;;;;;;;7.40;2.70;;;;;;;27.13;22.34;99802.93;105122;1274;68574;-65
2022/04/22 10:16:58;;;;;;;7.90;2.60;;;;;;;26.79;22.50;99800.48;105733;1273;74403;-67
2022/04/22 10:19:46;;;;;;;8.80;2.90;;;;;;;26.90;22.38;99805.91;106246;1274;59608;-64
2022/04/22 10:22:36;;;;;;;8.00;3.20;;;;;;;27.12;22.62;99813.18;106113;1273;60302;-67
2022/04/22 10:25:25;;;;;;;7.10;2.60;;;;;;;27.21;22.77;99815.00;106086;1274;73321;-65
2022/04/22 10:28:13;;;;;;;8.20;3.30;;;;;;;27.21;22.53;99820.34;104923;1274;69560;-64
2022/04/22 10:31:03;;;;;;;7.50;3.20;;;;;;;27.03;22.65;99813.98;105166;1274;72883;-64
2022/04/22 10:33:51;;;;;;;8.80;3.10;;;;;;;27.00;22.50;99816.81;104786;1274;60090;-65
2022/04/22 10:36:44;;;;;;;6.90;2.90;;;;;;;26.95;22.36;99818.52;104970;1274;59747;-69
2022/04/22 10:39:37;;;;;;;7.60;2.90;;;;;;;26.62;22.97;99821.63;104806;1274;72500;-68
2022/04/22 10:42:35;;;;;;;7.60;2.90;;;;;;;26.33;23.34;99819.57;104947;1274;68111;-67
2022/04/22 10:48:33;;;;;;;7.50;3.00;;;;;;;26.66;23.38;99810.84;104918;1273;59870;-66
2022/04/22 10:51:20;;;;;;;10.20;6.10;;;;;;;26.89;22.81;99809.77;104931;1274;60568;-67
2022/04/22 10:54:12;;;;;;;8.60;4.10;;;;;;;26.81;22.45;99808.73;105142;1273;73336;-66
2022/04/22 10:57:19;;;;;;;7.70;3.20;;;;;;;26.79;22.75;99809.02;104902;1274;68084;-65
2022/04/22 11:00:09;;;;;;;7.20;3.00;;;;;;;26.86;22.79;99810.77;105023;1273;73576;-65
2022/04/22 11:03:13;;;;;;;7.30;3.00;;;;;;;26.78;22.85;99802.27;104791;1274;59322;-66
2022/04/22 11:06:06;;;;;;;7.50;3.20;;;;;;;26.88;22.79;99808.75;104946;1274;60252;-67
2022/04/22 11:09:02;;;;;;;7.90;2.60;;;;;;;26.75;22.73;99810.80;105029;1274;73001;-65
2022/04/22 11:11:50;;;;;;;8.60;3.00;;;;;;;26.49;22.93;99815.05;104983;1274;69608;-67
2022/04/22 11:14:47;;;;;;;8.10;2.90;;;;;;;26.42;22.83;99812.94;104714;1274;73714;-64
2022/04/22 11:17:44;;;;;;;7.00;2.90;;;;;;;26.41;22.95;99811.95;104920;1274;59792;-67
2022/04/22 11:20:38;;;;;;;7.20;2.90;;;;;;;26.24;22.61;99808.85;104753;1274;59678;-65
2022/04/22 11:23:39;;;;;;;7.00;3.10;;;;;;;26.08;23.04;99805.09;104691;1274;74517;-65
2022/04/22 11:26:29;;;;;;;8.50;3.40;;;;;;;25.83;23.10;99802.37;104745;1274;68715;-67
2022/04/22 11:29:18;;;;;;;7.50;3.40;;;;;;;25.52;23.20;99799.70;104744;1273;72860;-67
2022/04/22 11:32:23;;;;;;;7.80;3.00;;;;;;;25.18;23.31;99795.69;105079;1274;59627;-69
2022/04/22 11:35:18;;;;;;;8.20;3.40;;;;;;;24.69;23.65;99797.80;104735;1273;62047;-66
2022/04/22 11:38:06;;;;;;;7.10;3.30;;;;;;;24.49;24.14;99800.44;104670;1274;72853;-66
2022/04/22 11:40:54;;;;;;;8.50;3.40;;;;;;;24.25;24.42;99798.38;104792;1274;68554;-65
2022/04/22 11:43:43;;;;;;;7.30;3.20;;;;;;;23.85;24.89;99799.53;104734;1274;72363;-65
2022/04/22 11:46:31;;;;;;;9.00;3.60;;;;;;;23.29;25.38;99794.91;104791;1274;59758;-66
2022/04/22 11:49:32;;;;;;;8.20;3.30;;;;;;;22.76;26.25;99800.06;104694;1274;60358;-66
2022/04/22 11:52:28;;;;;;;7.10;3.10;;;;;;;22.56;26.47;99794.84;104709;1274;72732;-65
2022/04/22 11:55:20;;;;;;;6.60;3.10;;;;;;;22.37;26.37;99795.65;105191;1272;67944;-70
2022/04/22 11:58:13;;;;;;;7.00;3.50;;;;;;;21.67;27.37;99796.69;104660;1274;72190;-68
2022/04/22 12:10:28;;;;;;;7.40;3.70;;;;;;;18.80;31.72;99807.27;104989;1274;66598;-69
2022/04/22 12:13:17;;;;;;;8.60;3.90;;;;;;;18.29;33.05;99805.70;104757;1276;72491;-66
2022/04/22 12:16:05;;;;;;;9.50;4.30;;;;;;;17.90;33.21;99810.29;104836;1276;59668;-65
2022/04/22 12:18:55;;;;;;;7.40;3.80;;;;;;;17.64;34.00;99807.98;104594;1276;60243;-67
2022/04/22 12:21:44;;;;;;;7.90;4.30;;;;;;;17.34;34.37;99807.73;104656;1277;73678;-68
2022/04/22 12:24:32;;;;;;;9.20;4.20;;;;;;;17.13;34.50;99812.34;104737;1278;68617;-66
2022/04/22 12:27:21;;;;;;;8.50;4.30;;;;;;;17.01;35.18;99809.32;104537;1276;74319;-66
2022/04/22 12:30:12;;;;;;;9.30;4.10;;;;;;;16.97;35.70;99812.98;104579;1277;59939;-67
2022/04/22 12:33:00;;;;;;;8.60;4.50;;;;;;;16.93;35.67;99813.08;104263;1279;60970;-67
2022/04/22 12:35:59;;;;;;;10.40;4.20;;;;;;;16.77;35.41;99810.88;104593;1276;73657;-67
2022/04/22 12:38:48;;;;;;;7.70;4.00;;;;;;;16.56;35.80;99810.58;104908;1276;69717;-67
2022/04/22 12:41:45;;;;;;;9.70;3.90;;;;;;;16.48;35.95;99811.39;104409;1276;73389;-69
2022/04/22 12:44:34;;;;;;;9.10;4.20;;;;;;;16.32;36.14;99814.34;104636;1274;59864;-69
2022/04/22 12:53:37;;;;;;;9.40;4.20;;;;;;;15.77;36.81;99818.46;105025;1274;68353;-69
2022/04/22 12:56:25;;;;;;;9.00;4.00;;;;;;;15.67;37.73;99811.25;105047;1273;72860;-68
2022/04/22 12:59:14;;;;;;;8.60;4.20;;;;;;;15.69;37.95;99818.06;104778;1274;60633;-69
2022/04/22 13:02:08;;;;;;;11.70;4.80;;;;;;;15.70;37.82;99813.61;104955;1274;60512;-69
2022/04/22 13:05:02;;;;;;;8.40;4.30;;;;;;;15.68;38.06;99818.27;104981;1273;73105;-69
2022/04/22 13:07:51;;;;;;;8.90;4.70;;;;;;;15.62;38.44;99819.06;104957;1274;68023;-66
2022/04/22 13:10:41;;;;;;;11.60;4.90;;;;;;;15.52;38.42;99807.60;105143;1274;73065;-69
2022/04/22 13:13:33;;;;;;;11.60;6.80;;;;;;;15.39;38.19;99814.43;105033;1273;59637;-68
2022/04/22 13:16:22;;;;;;;9.00;5.00;;;;;;;15.21;38.76;99811.07;104831;1273;60789;-70
2022/04/22 13:19:14;;;;;;;10.80;5.80;;;;;;;15.10;39.38;99808.98;104864;1274;71209;-68
2022/04/22 13:22:02;;;;;;;8.50;4.70;;;;;;;15.05;39.38;99807.33;104908;1274;68337;-69
2022/04/22 13:24:50;;;;;;;9.10;5.10;;;;;;;15.03;39.02;99806.30;104999;1274;72720;-68
2022/04/22 13:27:42;;;;;;;9.30;4.90;;;;;;;14.94;39.54;99806.85;104880;1274;59985;-68
2022/04/22 13:30:30;;;;;;;9.50;5.40;;;;;;;14.86;39.20;99809.76;104971;1274;59599;-67
2022/04/22 13:33:19;;;;;;;12.90;5.20;;;;;;;14.84;39.62;99811.36;104916;1274;71364;-68
2022/04/22 13:36:15;;;;;;;9.40;4.50;;;;;;;14.83;39.50;99808.40;104903;1274;68076;-69
2022/04/22 13:39:04;;;;;;;9.40;4.50;;;;;;;14.68;39.83;99803.02;104700;1274;74838;-68
2022/04/22 13:41:52;;;;;;;8.80;4.70;;;;;;;14.48;40.03;99798.81;105042;1274;59844;-67
2022/04/22 13:53:59;;;;;;;10.30;4.70;;;;;;;14.42;40.83;99805.45;105080;1274;71531;-68
2022/04/22 13:56:48;;;;;;;10.80;5.40;;;;;;;14.44;40.99;99805.11;105023;1274;59791;-69
2022/04/22 13:59:36;;;;;;;9.80;5.00;;;;;;;14.53;41.45;99811.22;104360;1273;1003091;-66
2022/04/22 14:02:23;;;;;;;9.00;4.50;;;;;;;14.58;41.20;99812.33;104743;1274;74584;-67
2022/04/22 14:05:21;;;;;;;10.60;4.30;;;;;;;14.53;40.86;99814.03;105195;1274;66559;-69
2022/04/22 14:08:09;;;;;;;10.20;5.20;;;;;;;14.34;41.26;99811.24;105174;1274;72812;-69
2022/04/22 14:10:57;;;;;;;9.40;4.70;;;;;;;14.26;41.84;99805.80;105122;1274;59762;-67
2022/04/22 14:13:45;;;;;;;10.80;5.30;;;;;;;14.33;41.67;99801.77;105067;1274;59675;-67
2022/04/22 14:16:33;;;;;;;9.00;4.50;;;;;;;14.34;41.33;99807.66;104987;1274;73134;-67
2022/04/22 14:19:22;;;;;;;12.00;4.60;;;;;;;14.29;41.61;99806.17;105122;1275;68648;-69
2022/04/22 14:22:10;;;;;;;9.00;4.90;;;;;;;14.24;42.00;99807.42;104918;1274;71599;-66
2022/04/22 14:24:57;;;;;;;11.60;5.40;;;;;;;14.31;41.89;99805.79;104762;1274;59635;-68